This is the latest recevied weather packets stored in our database for station/object XE2AD-5. If no packets are shown the sender has not sent any weather packets the latest 10 day(s).
| Time | Temp. | Humidity | Pressure | Rain* | Wind** | Luminosity | Snow |
|---|---|---|---|---|---|---|---|
| 1777659624 | 28.89° C | 22% | 804.7 hPa | - | - | - | - |
| 1777656324 | 28.33° C | 26% | 805.4 hPa | - | - | - | - |
| 1777653024 | 27.78° C | 26% | 805.7 hPa | - | - | - | - |
| 1777649724 | 27.78° C | 24% | 805.9 hPa | - | - | - | - |
| 1777646423 | 27.78° C | 24% | 805.9 hPa | - | - | - | - |
| 1777643123 | 27.78° C | 23% | 805.5 hPa | - | - | - | - |
| 1777639823 | 28.33° C | 23% | 805.4 hPa | - | - | - | - |
| 1777636523 | 28.33° C | 23% | 804.6 hPa | - | - | - | - |
| 1777633223 | 28.89° C | 23% | 804 hPa | - | - | - | - |
| 1777629923 | 29.44° C | 23% | 803.8 hPa | - | - | - | - |
| 1777626622 | 29.44° C | 22% | 803.8 hPa | - | - | - | - |
| 1777623322 | 30° C | 22% | 803.7 hPa | - | - | - | - |
| 1777620021 | 30° C | 21% | 804.1 hPa | - | - | - | - |
| 1777616720 | 30° C | 21% | 804.3 hPa | - | - | - | - |
| 1777613420 | 30.56° C | 20% | 804.4 hPa | - | - | - | - |
| 1777610120 | 30.56° C | 19% | 804.1 hPa | - | - | - | - |
| 1777606820 | 30.56° C | 17% | 803.4 hPa | - | - | - | - |
| 1777603520 | 31.11° C | 15% | 802.6 hPa | - | - | - | - |
| 1777600220 | 31.11° C | 18% | 802 hPa | - | - | - | - |
| 1777596919 | 31.11° C | 19% | 801.6 hPa | - | - | - | - |
| 1777593619 | 31.11° C | 16% | 801.3 hPa | - | - | - | - |
| 1777590319 | 30.56° C | 16% | 801.5 hPa | - | - | - | - |
| 1777587019 | 30° C | 16% | 801.9 hPa | - | - | - | - |
| 1777583719 | 30° C | 17% | 802.6 hPa | - | - | - | - |
| 1777580419 | 29.44° C | 18% | 803.2 hPa | - | - | - | - |
* Rain since midnight (hover to see other rain measurements)
** Current wind speed in m/s (hover to see current wind gust speed)